Aérodrome :
LOGIN :

S'inscrire | Disclaimer

   EN    FR    IT 

 










Légende :    VFR   VFR Marginal   IFR   IFR Intensif   IFR Très Intensif
Visi : 
Plafond : 
>= 8 km
>= 3000ft
5 à 8 km
1000 à 3000 ft
1500m à 5 km
500 à 1000 ft
800 à 1500m
200 à 500 ft
< 800m
< 200 ft
Symboles :   Orages  Brouillard  Fortes neiges  Fortes précipitations  Vent > 20 kt
SIGMETs :   Divers  Orages  Givrage  Turbulence  Onde Orograph.  Cendres Volcan.







- Altitude de l'aérodrome : 741 ft
- Code IATA : PED


LKPD - Pardubice AB

DERNIER METAR :
  • 231400Z 29008KT 9999 FEW024 BKN040 BKN050 11/06 Q1016 NOSIG RMK BLU BLU

METARs EXPIRÉS :
  • 231300Z 29010KT 9999 FEW022 BKN045 11/06 Q1015 NOSIG RMK BLU BLU
  • 231200Z 29014KT 9999 FEW022 BKN048 11/06 Q1015 NOSIG RMK BLU BLU

TAF TAF LKPD
Valide du 23 à 12h jusqu'au 24 à 12h UTC


231100Z 2312/2412 30012KT 9999 BKN045
PROB40
TEMPO 2312/2316 30014G24KT
PROB30
TEMPO 2312/2320 7000 SHRA BKN020
BECMG 2400/2403 28006KT BKN020
TEMPO 2402/2409 5000 BR BKN012
Pas de NOTAMs connus pour ce terrain.



MET'MAP, la Météo Aéronautique d'un coup d'oeil ! - Copyright ORBIFLY Décembre 2007 - Disclaimer

ORBIFLY MET'MAP TEAM :

Programmation & Développement : Alexandra Zaïnal
Conception & Développement : Baudouin d'Aumeries
Co-Programmation & Développement : Marc-Olivier Méhu
Soutien technique & logistique : Manuel Goepfert

Contact : metmap@orbifly.com




SOURCES & CREDITS :

   NOAA